createdAt,value
2022-08-28T00:01:59.109Z,62.30
2022-08-28T00:04:28.020Z,61.90
2022-08-28T00:06:58.094Z,61.60
2022-08-28T00:09:26.890Z,61.50
2022-08-28T00:11:56.808Z,61.50
2022-08-28T00:14:26.682Z,61.70
2022-08-28T00:16:57.851Z,62.40
2022-08-28T00:19:26.537Z,62.80
2022-08-28T00:21:55.338Z,63.10
2022-08-28T00:24:26.872Z,63.00
2022-08-28T00:27:12.550Z,62.70
2022-08-28T00:29:41.533Z,62.60
2022-08-28T00:32:10.885Z,62.10
2022-08-28T00:34:40.069Z,61.90
2022-08-28T00:37:08.762Z,61.70
2022-08-28T00:39:38.660Z,61.60
2022-08-28T00:42:07.550Z,61.40
2022-08-28T00:44:36.854Z,61.00
2022-08-28T00:47:06.453Z,60.90
2022-08-28T00:49:44.123Z,61.40
2022-08-28T00:52:15.381Z,61.60
2022-08-28T00:54:58.444Z,61.50
2022-08-28T00:57:32.608Z,61.60
2022-08-28T01:00:01.691Z,61.30
2022-08-28T01:02:31.948Z,61.00
2022-08-28T01:05:01.064Z,61.20
2022-08-28T01:07:30.277Z,60.90
2022-08-28T01:10:01.323Z,61.50
2022-08-28T01:12:34.495Z,61.70
2022-08-28T01:15:11.963Z,61.70
2022-08-28T01:17:49.996Z,61.80
2022-08-28T01:20:23.771Z,61.50
2022-08-28T01:23:03.210Z,61.60
2022-08-28T01:25:38.000Z,61.80
2022-08-28T01:28:12.709Z,62.80
2022-08-28T01:30:44.797Z,62.10
2022-08-28T01:33:15.981Z,62.20
2022-08-28T01:35:48.773Z,62.00
2022-08-28T01:38:20.070Z,61.80
2022-08-28T01:40:57.295Z,61.40
2022-08-28T01:43:28.923Z,61.60
2022-08-28T01:46:02.298Z,61.50
2022-08-28T01:48:36.279Z,61.70
2022-08-28T01:51:06.931Z,62.20
2022-08-28T01:53:36.182Z,62.40
2022-08-28T01:56:12.615Z,63.00
2022-08-28T01:58:42.233Z,63.70
2022-08-28T02:01:12.683Z,64.00
2022-08-28T02:03:43.296Z,64.10
2022-08-28T02:06:13.650Z,64.70
2022-08-28T02:08:42.663Z,65.20
2022-08-28T02:11:13.486Z,65.40
2022-08-28T02:13:42.362Z,65.10
2022-08-28T02:16:12.622Z,64.70
2022-08-28T02:18:41.984Z,64.80
2022-08-28T02:21:36.588Z,63.60
2022-08-28T02:24:05.646Z,63.20
2022-08-28T02:26:35.586Z,63.40
2022-08-28T02:29:04.593Z,63.60
2022-08-28T02:31:33.398Z,63.40
2022-08-28T02:34:01.910Z,62.90
2022-08-28T02:36:30.603Z,63.30
2022-08-28T02:38:59.103Z,63.10
2022-08-28T02:41:28.045Z,62.90
2022-08-28T02:43:58.006Z,62.70
2022-08-28T02:46:26.814Z,62.50
2022-08-28T02:48:56.324Z,62.40
2022-08-28T02:51:27.412Z,62.00
2022-08-28T02:53:55.829Z,62.20
2022-08-28T02:56:24.781Z,62.00
2022-08-28T02:58:53.870Z,62.10
2022-08-28T03:01:25.881Z,62.00
2022-08-28T03:03:55.081Z,61.90
2022-08-28T03:06:24.156Z,61.50
2022-08-28T03:08:52.630Z,61.60
2022-08-28T03:11:21.164Z,62.40
2022-08-28T03:13:50.697Z,61.70
2022-08-28T03:16:20.453Z,61.30
2022-08-28T03:18:50.339Z,61.00
2022-08-28T03:21:19.335Z,60.80
2022-08-28T03:23:47.772Z,60.80
2022-08-28T03:26:19.118Z,61.10
2022-08-28T03:28:53.810Z,61.20
2022-08-28T03:31:26.820Z,61.20
2022-08-28T03:33:57.612Z,60.90
2022-08-28T03:36:29.821Z,60.60
2022-08-28T03:39:01.966Z,61.20
2022-08-28T03:41:31.920Z,61.10
2022-08-28T03:44:02.090Z,61.40
2022-08-28T03:46:33.964Z,61.50
2022-08-28T03:49:06.109Z,61.70
2022-08-28T03:51:35.891Z,61.40
2022-08-28T03:54:05.407Z,61.40
2022-08-28T03:56:34.283Z,61.20
2022-08-28T03:59:05.723Z,61.00
2022-08-28T04:01:34.789Z,60.90
2022-08-28T04:04:05.526Z,60.90
2022-08-28T04:06:34.413Z,60.90
2022-08-28T04:09:05.226Z,60.80
2022-08-28T04:11:38.481Z,61.30
2022-08-28T04:14:07.129Z,60.90
2022-08-28T04:16:35.798Z,60.80
2022-08-28T04:19:05.835Z,60.20
2022-08-28T04:21:34.369Z,60.50
2022-08-28T04:24:04.979Z,61.00
2022-08-28T04:26:36.937Z,61.10
2022-08-28T04:29:07.121Z,61.20
2022-08-28T04:31:36.369Z,61.00
2022-08-28T04:34:10.525Z,60.80
2022-08-28T04:36:41.267Z,60.70
2022-08-28T04:39:11.208Z,60.50
2022-08-28T04:41:40.067Z,60.20
2022-08-28T04:44:09.360Z,60.00
2022-08-28T04:46:38.577Z,59.60
2022-08-28T04:49:08.864Z,59.80
2022-08-28T04:51:41.490Z,60.10
2022-08-28T04:54:11.942Z,60.00
2022-08-28T04:56:42.125Z,60.10
2022-08-28T04:59:11.716Z,59.80
2022-08-28T05:01:43.730Z,59.40
2022-08-28T05:04:14.317Z,59.20
2022-08-28T05:06:46.256Z,59.50
2022-08-28T05:09:21.319Z,59.40
2022-08-28T05:11:53.273Z,59.20
2022-08-28T05:14:22.373Z,59.40
2022-08-28T05:16:54.117Z,59.20
2022-08-28T05:19:24.211Z,59.50
2022-08-28T05:21:53.679Z,59.40
2022-08-28T05:24:23.139Z,59.50
2022-08-28T05:26:51.933Z,59.40
2022-08-28T05:29:20.475Z,59.10
2022-08-28T05:31:52.198Z,59.00
2022-08-28T05:34:21.169Z,58.90
2022-08-28T05:36:51.048Z,59.10
2022-08-28T05:39:19.863Z,58.90
2022-08-28T05:41:48.752Z,58.90
2022-08-28T05:44:19.819Z,58.50
2022-08-28T05:46:49.840Z,58.50
2022-08-28T05:49:20.209Z,58.30
2022-08-28T05:51:51.187Z,58.50
2022-08-28T05:54:19.772Z,58.60
2022-08-28T05:56:48.700Z,58.30
2022-08-28T05:59:17.914Z,57.80
2022-08-28T06:01:49.322Z,57.90
2022-08-28T06:04:23.504Z,57.80
2022-08-28T06:06:54.600Z,57.60
2022-08-28T06:09:29.473Z,56.80
2022-08-28T06:12:01.847Z,57.20
2022-08-28T06:14:31.503Z,56.50
2022-08-28T06:17:01.678Z,56.10
2022-08-28T06:19:32.445Z,57.10
2022-08-28T06:22:07.293Z,56.50
2022-08-28T06:24:37.126Z,55.90
2022-08-28T06:27:06.406Z,55.90
2022-08-28T06:29:35.494Z,55.40
2022-08-28T06:32:05.797Z,55.50
2022-08-28T06:34:34.826Z,55.70
2022-08-28T06:37:04.902Z,55.40
2022-08-28T06:39:33.464Z,55.60
2022-08-28T06:42:02.344Z,55.40
2022-08-28T06:44:32.417Z,54.80
2022-08-28T06:47:01.215Z,54.80
2022-08-28T06:49:29.796Z,54.50
2022-08-28T06:51:58.382Z,54.40
2022-08-28T06:54:31.016Z,54.00
2022-08-28T06:56:59.648Z,54.10
2022-08-28T06:59:28.272Z,54.30
2022-08-28T07:01:57.105Z,53.70
2022-08-28T07:04:25.802Z,54.30
2022-08-28T07:06:55.306Z,54.70
2022-08-28T07:09:25.657Z,55.10
2022-08-28T07:11:55.924Z,54.80
2022-08-28T07:14:26.899Z,54.10
2022-08-28T07:16:56.203Z,54.30
2022-08-28T07:19:24.906Z,53.50
2022-08-28T07:21:53.768Z,52.80
2022-08-28T07:24:23.657Z,52.10
2022-08-28T07:26:52.448Z,51.50
2022-08-28T07:29:23.376Z,51.40
2022-08-28T07:31:56.062Z,52.40
2022-08-28T07:34:26.947Z,52.00
2022-08-28T07:36:58.336Z,51.70
2022-08-28T08:29:59.530Z,44.80
2022-08-28T08:35:36.541Z,45.10
2022-08-28T08:38:06.618Z,43.40
2022-08-28T08:40:37.010Z,43.10
2022-08-28T08:46:04.155Z,42.20
2022-08-28T08:48:37.089Z,40.90
2022-08-28T08:51:15.641Z,40.30
2022-08-28T08:53:58.192Z,39.40
2022-08-28T08:56:34.932Z,36.90
2022-08-28T08:59:09.373Z,37.50
2022-08-28T09:01:59.341Z,36.30
2022-08-28T09:04:56.407Z,33.30
2022-08-28T09:07:39.390Z,32.30
2022-08-28T09:10:12.536Z,31.90
2022-08-28T09:13:07.488Z,32.60
2022-08-28T09:18:42.346Z,33.00
2022-08-28T09:21:14.133Z,33.50
2022-08-28T09:23:42.721Z,34.30
2022-08-28T09:26:25.497Z,34.40
2022-08-28T09:29:09.096Z,34.30
2022-08-28T09:31:42.020Z,35.50
2022-08-28T09:34:38.753Z,34.70
2022-08-28T09:37:09.742Z,34.00
2022-08-28T09:39:44.635Z,34.40
2022-08-28T09:42:41.213Z,34.50
2022-08-28T09:45:21.364Z,34.50
2022-08-28T09:47:56.112Z,34.90
2022-08-28T09:50:35.876Z,34.80
2022-08-28T09:53:24.837Z,33.80
2022-08-28T09:56:08.842Z,33.30
2022-08-28T09:58:43.472Z,33.90
2022-08-28T10:01:57.124Z,34.20
2022-08-28T10:04:46.635Z,33.30
2022-08-28T10:07:46.557Z,34.00
2022-08-28T10:10:29.031Z,31.40
2022-08-28T10:13:11.770Z,31.20
2022-08-28T10:16:00.491Z,32.90
2022-08-28T10:18:45.191Z,28.90
2022-08-28T10:21:22.341Z,28.30
2022-08-28T10:24:16.012Z,30.30
2022-08-28T10:27:06.723Z,26.20
2022-08-28T10:29:51.001Z,25.80
2022-08-28T10:33:18.713Z,23.10
2022-08-28T10:35:57.262Z,23.70
2022-08-28T10:38:39.974Z,22.80
2022-08-28T10:41:16.201Z,23.60
2022-08-28T10:43:50.040Z,24.60
2022-08-28T10:46:27.243Z,24.10
2022-08-28T10:49:03.161Z,24.40
2022-08-28T10:51:44.323Z,24.40
2022-08-28T10:54:26.873Z,26.60
2022-08-28T10:57:02.455Z,23.20
2022-08-28T10:59:34.020Z,22.20
2022-08-28T11:02:14.547Z,21.80
2022-08-28T11:04:43.506Z,21.30
2022-08-28T11:07:24.901Z,21.50
2022-08-28T11:09:53.751Z,19.20
2022-08-28T11:12:43.874Z,17.60
2022-08-28T11:15:43.225Z,17.50
2022-08-28T11:18:43.761Z,18.70
2022-08-28T11:21:22.196Z,18.70
2022-08-28T11:24:01.899Z,18.50
2022-08-28T11:26:42.170Z,18.00
2022-08-28T11:29:10.634Z,17.80
2022-08-28T11:31:42.278Z,16.40
2022-08-28T11:34:58.960Z,18.00
2022-08-28T11:37:42.541Z,16.80
2022-08-28T11:40:53.387Z,17.20
2022-08-28T11:43:36.522Z,16.90
2022-08-28T11:46:26.037Z,17.20
2022-08-28T11:48:57.175Z,17.50
2022-08-28T11:52:04.352Z,17.50
2022-08-28T11:54:50.884Z,17.40
2022-08-28T11:57:29.341Z,16.20
2022-08-28T12:00:10.913Z,16.20
2022-08-28T12:03:09.337Z,15.50
2022-08-28T12:05:46.474Z,15.30
2022-08-28T12:09:11.847Z,15.40
2022-08-28T12:12:00.824Z,16.60
2022-08-28T12:15:07.553Z,16.20
2022-08-28T12:17:50.199Z,16.30
2022-08-28T12:20:40.952Z,17.90
2022-08-28T12:23:45.312Z,18.70
2022-08-28T12:26:26.421Z,19.70
2022-08-28T12:28:59.040Z,20.20
2022-08-28T12:32:16.462Z,20.30
2022-08-28T12:35:06.299Z,20.70
2022-08-28T12:37:52.520Z,22.70
2022-08-28T12:40:25.904Z,21.80
2022-08-28T12:43:00.188Z,19.40
2022-08-28T12:45:34.884Z,18.70
2022-08-28T12:48:26.810Z,18.90
2022-08-28T12:51:03.301Z,18.60
2022-08-28T12:53:41.334Z,18.40
2022-08-28T12:56:12.101Z,18.90
2022-08-28T12:58:43.218Z,19.90
2022-08-28T13:01:24.625Z,19.50
2022-08-28T13:03:59.873Z,18.70
2022-08-28T13:06:32.810Z,18.50
2022-08-28T13:09:05.436Z,16.90
2022-08-28T13:11:37.946Z,16.50
2022-08-28T13:14:08.559Z,15.30
2022-08-28T13:16:41.293Z,15.00
2022-08-28T13:19:31.923Z,15.60
2022-08-28T13:22:03.394Z,13.50
2022-08-28T13:24:48.126Z,13.00
2022-08-28T13:27:24.747Z,14.30
2022-08-28T13:30:03.645Z,13.20
2022-08-28T13:32:34.513Z,13.30
2022-08-28T13:35:29.201Z,13.10
2022-08-28T13:38:00.928Z,13.30
2022-08-28T13:43:24.181Z,12.90
2022-08-28T13:45:54.202Z,13.40
2022-08-28T13:48:26.214Z,14.00
2022-08-28T13:51:04.897Z,15.10
2022-08-28T13:53:34.288Z,15.10
2022-08-28T13:56:02.958Z,14.20
2022-08-28T13:58:31.838Z,13.20
2022-08-28T14:01:01.050Z,12.90
2022-08-28T14:03:38.467Z,13.00
2022-08-28T14:06:12.380Z,13.00
2022-08-28T14:08:41.580Z,13.80
2022-08-28T14:11:12.585Z,14.40
2022-08-28T14:13:47.029Z,14.70
2022-08-28T14:16:24.780Z,16.00
2022-08-28T14:18:55.797Z,16.40
2022-08-28T14:21:25.639Z,16.30
2022-08-28T14:23:54.277Z,16.70
2022-08-28T14:26:22.940Z,17.20
2022-08-28T14:28:51.340Z,17.60
2022-08-28T14:31:20.211Z,17.60
2022-08-28T14:33:54.817Z,17.00
2022-08-28T14:36:27.872Z,17.10
2022-08-28T14:39:00.816Z,17.90
2022-08-28T14:41:32.580Z,18.10
2022-08-28T14:44:01.086Z,18.00
2022-08-28T14:46:35.649Z,18.00
2022-08-28T14:49:08.484Z,18.30
2022-08-28T14:51:42.532Z,18.90
2022-08-28T14:54:13.464Z,19.10
2022-08-28T14:56:43.328Z,18.20
2022-08-28T14:59:18.440Z,16.60
2022-08-28T15:01:51.200Z,15.10
2022-08-28T15:04:24.089Z,15.40
2022-08-28T15:07:00.493Z,13.20
2022-08-28T15:09:29.734Z,11.50
2022-08-28T15:11:58.244Z,12.50
2022-08-28T15:14:26.865Z,11.90
2022-08-28T15:16:55.339Z,11.90
2022-08-28T15:19:24.258Z,11.60
2022-08-28T15:21:56.996Z,11.00
2022-08-28T15:24:31.163Z,11.40
2022-08-28T15:27:00.632Z,11.50
2022-08-28T15:29:30.278Z,11.30
2022-08-28T15:32:00.735Z,10.80
2022-08-28T15:34:30.248Z,11.30
2022-08-28T15:37:01.741Z,12.00
2022-08-28T15:39:53.758Z,13.50
2022-08-28T15:42:23.283Z,14.00
2022-08-28T15:44:51.666Z,14.60
2022-08-28T15:47:20.095Z,15.60
2022-08-28T15:49:57.147Z,15.90
2022-08-28T15:52:27.750Z,16.10
2022-08-28T15:54:56.350Z,17.20
2022-08-28T15:57:24.796Z,17.70
2022-08-28T15:59:53.332Z,16.50
2022-08-28T16:02:25.140Z,15.70
2022-08-28T16:04:55.135Z,15.40
2022-08-28T16:07:25.949Z,15.50
2022-08-28T16:09:54.536Z,14.50
2022-08-28T16:12:23.016Z,14.00
2022-08-28T16:14:51.473Z,14.50
2022-08-28T16:17:20.112Z,14.00
2022-08-28T16:19:48.592Z,14.20
2022-08-28T16:22:18.248Z,13.90
2022-08-28T16:24:48.734Z,15.00
2022-08-28T16:27:17.229Z,17.30
2022-08-28T16:29:46.250Z,17.80
2022-08-28T16:32:17.970Z,18.40
2022-08-28T16:34:46.416Z,16.50
2022-08-28T16:37:20.896Z,16.80
2022-08-28T16:39:57.080Z,18.10
2022-08-28T16:42:28.660Z,19.40
2022-08-28T16:45:01.107Z,19.10
2022-08-28T16:47:31.618Z,17.80
2022-08-28T16:50:02.936Z,17.70
2022-08-28T16:52:31.353Z,17.80
2022-08-28T16:55:01.150Z,18.50
2022-08-28T16:57:30.026Z,16.90
2022-08-28T16:59:58.657Z,16.70
2022-08-28T17:02:27.427Z,17.30
2022-08-28T17:05:00.369Z,17.40
2022-08-28T17:07:29.266Z,17.70
2022-08-28T17:09:57.738Z,18.20
2022-08-28T17:12:27.703Z,18.90
2022-08-28T17:14:56.498Z,18.80
2022-08-28T17:17:25.338Z,19.80
2022-08-28T17:19:54.118Z,21.50
2022-08-28T17:22:33.805Z,23.20
2022-08-28T17:25:07.731Z,24.10
2022-08-28T17:27:38.425Z,25.00
2022-08-28T17:30:08.726Z,25.90
2022-08-28T17:32:37.514Z,27.10
2022-08-28T17:35:06.977Z,28.00
2022-08-28T17:37:35.390Z,28.20
2022-08-28T17:40:05.071Z,29.40
2022-08-28T17:42:33.530Z,30.70
2022-08-28T17:45:03.502Z,31.50
2022-08-28T17:47:32.239Z,33.40
2022-08-28T17:50:01.546Z,35.10
2022-08-28T17:52:30.742Z,36.40
2022-08-28T17:54:59.253Z,37.10
2022-08-28T17:57:30.420Z,38.20
2022-08-28T18:00:00.079Z,37.80
2022-08-28T18:02:30.540Z,38.60
2022-08-28T18:04:59.089Z,39.00
2022-08-28T18:07:31.015Z,40.00
2022-08-28T18:10:00.192Z,40.60
2022-08-28T18:12:28.722Z,41.50
2022-08-28T18:14:57.349Z,42.50
2022-08-28T18:17:26.147Z,43.60
2022-08-28T18:19:56.841Z,44.30
2022-08-28T18:22:29.606Z,44.50
2022-08-28T18:24:58.773Z,44.80
2022-08-28T18:27:29.012Z,44.90
2022-08-28T18:29:58.699Z,45.30
2022-08-28T18:32:27.530Z,45.90
2022-08-28T18:34:57.336Z,46.50
2022-08-28T18:37:25.784Z,46.70
2022-08-28T18:39:54.499Z,47.10
2022-08-28T18:42:25.319Z,47.20
2022-08-28T18:44:53.728Z,47.40
2022-08-28T18:47:22.173Z,47.50
2022-08-28T18:49:50.612Z,47.60
2022-08-28T18:52:20.469Z,47.70
2022-08-28T18:54:50.502Z,48.00
2022-08-28T18:57:19.593Z,48.40
2022-08-28T18:59:48.848Z,48.90
2022-08-28T19:02:18.183Z,49.30
2022-08-28T19:04:46.826Z,49.50
2022-08-28T19:07:16.202Z,49.80
2022-08-28T19:09:46.142Z,50.20
2022-08-28T19:12:14.574Z,50.90
2022-08-28T19:14:43.033Z,51.10
2022-08-28T19:17:11.565Z,51.90
2022-08-28T19:19:40.026Z,51.30
2022-08-28T19:22:08.478Z,51.10
2022-08-28T19:24:37.402Z,51.00
2022-08-28T19:27:07.874Z,51.00
2022-08-28T19:29:36.797Z,51.10
2022-08-28T19:32:06.211Z,51.10
2022-08-28T19:34:35.389Z,51.20
2022-08-28T19:37:04.079Z,51.10
2022-08-28T19:39:32.526Z,51.40
2022-08-28T19:42:01.533Z,51.80
2022-08-28T19:44:31.353Z,52.30
2022-08-28T19:46:59.789Z,52.60
2022-08-28T19:49:28.254Z,52.90
2022-08-28T19:51:56.796Z,53.00
2022-08-28T19:54:25.207Z,53.10
2022-08-28T19:56:53.953Z,53.20
2022-08-28T19:59:26.905Z,53.20
2022-08-28T20:01:57.080Z,53.00
2022-08-28T20:04:25.859Z,52.90
2022-08-28T20:06:54.837Z,52.70
2022-08-28T20:09:23.985Z,52.60
2022-08-28T20:11:53.193Z,52.60
2022-08-28T20:14:22.960Z,52.60
2022-08-28T20:16:54.528Z,52.70
2022-08-28T20:19:29.236Z,52.90
2022-08-28T20:21:57.961Z,53.10
2022-08-28T20:24:26.633Z,53.10
2022-08-28T20:26:55.198Z,53.10
2022-08-28T20:29:24.328Z,53.30
2022-08-28T20:31:53.536Z,53.10
2022-08-28T20:34:22.593Z,53.10
2022-08-28T20:36:52.784Z,53.10
2022-08-28T20:39:22.616Z,52.90
2022-08-28T20:41:51.785Z,53.00
2022-08-28T20:44:22.313Z,52.90
2022-08-28T20:46:51.810Z,52.70
2022-08-28T20:49:23.839Z,52.60
2022-08-28T20:51:56.326Z,52.70
2022-08-28T20:54:29.346Z,52.90
2022-08-28T20:57:01.850Z,53.10
2022-08-28T20:59:34.511Z,53.20
2022-08-28T21:02:10.886Z,53.20
2022-08-28T21:04:42.366Z,53.10
2022-08-28T21:07:13.310Z,52.90
2022-08-28T21:10:05.679Z,52.80
2022-08-28T21:12:31.333Z,52.90
2022-08-28T21:15:00.031Z,53.10
2022-08-28T21:17:30.725Z,53.50
2022-08-28T21:20:02.900Z,53.60
2022-08-28T21:22:35.251Z,53.90
2022-08-28T21:25:06.720Z,54.10
2022-08-28T21:27:36.457Z,54.30
2022-08-28T21:30:09.163Z,55.10
2022-08-28T21:32:38.334Z,54.70
2022-08-28T21:35:11.034Z,54.90
2022-08-28T21:37:42.553Z,55.00
2022-08-28T21:40:15.287Z,54.70
2022-08-28T21:42:44.452Z,54.60
2022-08-28T21:45:13.916Z,54.30
2022-08-28T21:47:43.292Z,54.50
2022-08-28T21:50:13.081Z,54.50
2022-08-28T21:52:43.069Z,54.20
2022-08-28T21:55:17.485Z,54.30
2022-08-28T21:57:46.277Z,54.20
2022-08-28T22:00:18.960Z,54.30
2022-08-28T22:02:48.517Z,54.50
2022-08-28T22:05:17.750Z,54.60
2022-08-28T22:07:48.281Z,54.50
2022-08-28T22:10:16.943Z,54.70
2022-08-28T22:12:45.482Z,55.00
2022-08-28T22:15:13.989Z,55.30
2022-08-28T22:17:42.561Z,55.20
2022-08-28T22:20:12.079Z,55.90
2022-08-28T22:22:58.065Z,55.00
2022-08-28T22:25:28.135Z,55.20
2022-08-28T22:27:56.750Z,55.00
2022-08-28T22:30:25.806Z,54.90
2022-08-28T22:32:54.924Z,54.70
2022-08-28T22:35:23.635Z,54.60
2022-08-28T22:37:52.396Z,54.50
2022-08-28T22:40:21.852Z,54.30
2022-08-28T22:42:54.906Z,53.90
2022-08-28T22:45:24.049Z,54.00
2022-08-28T22:47:54.063Z,53.90
2022-08-28T22:50:24.830Z,53.80
2022-08-28T22:52:57.657Z,54.40
2022-08-28T22:55:27.345Z,54.40
2022-08-28T22:57:57.446Z,54.30
2022-08-28T23:00:28.094Z,54.20
2022-08-28T23:02:58.735Z,53.70
2022-08-28T23:05:30.006Z,53.70
2022-08-28T23:07:58.590Z,54.10
2022-08-28T23:10:48.270Z,54.20
2022-08-28T23:13:20.981Z,54.10
2022-08-28T23:15:50.288Z,54.50
2022-08-28T23:18:19.302Z,54.70
2022-08-28T23:20:50.766Z,54.80
2022-08-28T23:23:20.808Z,54.80
2022-08-28T23:25:50.265Z,54.80
2022-08-28T23:28:21.286Z,54.80
2022-08-28T23:30:50.059Z,54.90
2022-08-28T23:33:23.772Z,54.80
2022-08-28T23:35:52.736Z,54.70
2022-08-28T23:38:21.248Z,54.40
2022-08-28T23:40:49.909Z,54.30
2022-08-28T23:43:20.601Z,54.30
2022-08-28T23:45:49.779Z,54.40
2022-08-28T23:48:18.346Z,54.30
2022-08-28T23:50:46.941Z,54.20
2022-08-28T23:53:16.576Z,54.10
2022-08-28T23:55:45.893Z,54.00
2022-08-28T23:58:17.526Z,53.80
